createdAt,value
2022-10-19T00:00:52.914Z,1015.97
2022-10-19T00:01:52.969Z,1016.02
2022-10-19T00:02:52.897Z,1015.98
2022-10-19T00:03:52.925Z,1016.00
2022-10-19T00:04:52.856Z,1015.99
2022-10-19T00:05:52.889Z,1016.03
2022-10-19T00:06:52.861Z,1015.99
2022-10-19T00:07:52.856Z,1015.91
2022-10-19T00:08:53.145Z,1015.93
2022-10-19T00:09:52.816Z,1015.93
2022-10-19T00:10:52.798Z,1015.89
2022-10-19T00:11:52.789Z,1015.89
2022-10-19T00:12:52.768Z,1015.88
2022-10-19T00:13:53.017Z,1015.88
2022-10-19T00:14:52.751Z,1015.85
2022-10-19T00:15:52.740Z,1015.86
2022-10-19T00:16:52.730Z,1015.84
2022-10-19T00:17:52.708Z,1015.86
2022-10-19T00:18:54.961Z,1015.84
2022-10-19T00:19:52.689Z,1015.88
2022-10-19T00:20:52.690Z,1015.87
2022-10-19T00:21:52.688Z,1015.83
2022-10-19T00:22:52.680Z,1015.85
2022-10-19T00:23:52.648Z,1015.86
2022-10-19T00:24:52.640Z,1015.86
2022-10-19T00:25:52.639Z,1015.81
2022-10-19T00:28:03.906Z,1015.89
2022-10-19T00:29:03.686Z,1015.84
2022-10-19T00:30:03.584Z,1015.83
2022-10-19T00:31:03.559Z,1015.85
2022-10-19T00:32:03.550Z,1015.85
2022-10-19T00:33:03.530Z,1015.84
2022-10-19T00:34:03.574Z,1015.80
2022-10-19T00:35:03.523Z,1015.88
2022-10-19T00:36:03.515Z,1015.84
2022-10-19T00:37:03.511Z,1015.82
2022-10-19T00:38:03.497Z,1015.89
2022-10-19T00:39:03.471Z,1015.84
2022-10-19T00:40:03.506Z,1015.84
2022-10-19T00:41:03.454Z,1015.89
2022-10-19T00:42:03.439Z,1015.90
2022-10-19T00:43:03.439Z,1015.90
2022-10-19T00:44:03.413Z,1015.92
2022-10-19T00:45:03.426Z,1015.83
2022-10-19T00:46:03.411Z,1015.89
2022-10-19T00:47:03.380Z,1015.88
2022-10-19T00:48:03.388Z,1015.90
2022-10-19T00:49:04.863Z,1015.87
2022-10-19T00:50:03.357Z,1015.84
2022-10-19T00:51:03.346Z,1015.84
2022-10-19T00:52:03.523Z,1015.89
2022-10-19T00:53:03.517Z,1015.91
2022-10-19T00:54:03.493Z,1015.91
2022-10-19T00:55:03.294Z,1015.88
2022-10-19T00:56:03.302Z,1015.92
2022-10-19T00:57:03.268Z,1015.90
2022-10-19T00:58:03.259Z,1015.91
2022-10-19T00:59:03.504Z,1015.92
2022-10-19T01:00:03.224Z,1015.91
2022-10-19T01:01:03.257Z,1015.95
2022-10-19T01:02:03.217Z,1015.94
2022-10-19T01:03:03.205Z,1015.90
2022-10-19T01:04:03.507Z,1015.90
2022-10-19T01:05:03.199Z,1015.93
2022-10-19T01:06:03.178Z,1015.90
2022-10-19T01:07:03.169Z,1015.88
2022-10-19T01:08:03.159Z,1015.90
2022-10-19T01:09:03.448Z,1015.91
2022-10-19T01:10:03.136Z,1015.90
2022-10-19T01:11:03.120Z,1015.90
2022-10-19T01:12:03.101Z,1015.89
2022-10-19T01:13:03.077Z,1015.88
2022-10-19T01:14:03.287Z,1015.87
2022-10-19T01:15:03.047Z,1015.87
2022-10-19T01:16:03.058Z,1015.81
2022-10-19T01:17:03.029Z,1015.80
2022-10-19T01:18:03.032Z,1015.79
2022-10-19T01:19:03.024Z,1015.86
2022-10-19T01:20:03.299Z,1015.83
2022-10-19T01:21:02.995Z,1015.83
2022-10-19T01:22:02.982Z,1015.87
2022-10-19T01:23:02.962Z,1015.89
2022-10-19T01:24:03.279Z,1015.89
2022-10-19T01:25:02.956Z,1015.84
2022-10-19T01:26:03.247Z,1015.85
2022-10-19T01:27:02.962Z,1015.85
2022-10-19T01:28:02.923Z,1015.85
2022-10-19T01:29:02.926Z,1015.80
2022-10-19T01:30:03.191Z,1015.84
2022-10-19T01:31:02.880Z,1015.79
2022-10-19T01:32:02.871Z,1015.78
2022-10-19T01:33:02.866Z,1015.78
2022-10-19T01:34:03.165Z,1015.72
2022-10-19T01:35:02.831Z,1015.68
2022-10-19T01:36:02.832Z,1015.67
2022-10-19T01:37:02.812Z,1015.69
2022-10-19T01:38:02.805Z,1015.68
2022-10-19T01:39:03.037Z,1015.70
2022-10-19T01:40:02.785Z,1015.65
2022-10-19T01:41:02.753Z,1015.63
2022-10-19T01:42:03.086Z,1015.63
2022-10-19T01:43:02.782Z,1015.62
2022-10-19T01:44:02.723Z,1015.64
2022-10-19T01:45:02.711Z,1015.58
2022-10-19T01:46:02.715Z,1015.62
2022-10-19T01:47:02.973Z,1015.62
2022-10-19T01:48:02.998Z,1015.62
2022-10-19T01:49:02.678Z,1015.57
2022-10-19T01:50:02.654Z,1015.56
2022-10-19T01:51:02.645Z,1015.51
2022-10-19T01:52:02.650Z,1015.49
2022-10-19T01:53:02.854Z,1015.51
2022-10-19T01:54:02.627Z,1015.46
2022-10-19T01:55:02.596Z,1015.42
2022-10-19T01:56:02.905Z,1015.46
2022-10-19T01:57:02.566Z,1015.45
2022-10-19T01:58:02.561Z,1015.41
2022-10-19T01:59:02.560Z,1015.41
2022-10-19T02:00:02.537Z,1015.38
2022-10-19T02:01:02.620Z,1015.41
2022-10-19T02:02:02.836Z,1015.42
2022-10-19T02:03:02.521Z,1015.42
2022-10-19T02:04:02.487Z,1015.42
2022-10-19T02:05:02.498Z,1015.46
2022-10-19T02:06:02.468Z,1015.41
2022-10-19T02:07:02.778Z,1015.42
2022-10-19T02:08:02.648Z,1015.45
2022-10-19T02:09:02.436Z,1015.45
2022-10-19T02:10:02.468Z,1015.47
2022-10-19T02:11:02.410Z,1015.47
2022-10-19T02:12:02.653Z,1015.45
2022-10-19T02:13:02.410Z,1015.46
2022-10-19T02:14:02.391Z,1015.45
2022-10-19T02:15:02.380Z,1015.41
2022-10-19T02:16:02.377Z,1015.49
2022-10-19T02:17:02.351Z,1015.52
2022-10-19T02:18:02.667Z,1015.40
2022-10-19T02:19:02.341Z,1015.50
2022-10-19T02:20:02.621Z,1015.45
2022-10-19T02:21:02.300Z,1015.46
2022-10-19T02:22:02.290Z,1015.49
2022-10-19T02:23:02.281Z,1015.47
2022-10-19T02:24:02.270Z,1015.50
2022-10-19T02:25:02.594Z,1015.48
2022-10-19T02:26:02.512Z,1015.44
2022-10-19T02:27:02.231Z,1015.42
2022-10-19T02:28:02.235Z,1015.44
2022-10-19T02:29:02.427Z,1015.47
2022-10-19T02:30:02.456Z,1015.39
2022-10-19T02:31:02.498Z,1015.50
2022-10-19T02:32:02.203Z,1015.40
2022-10-19T02:33:02.187Z,1015.42
2022-10-19T02:34:02.168Z,1015.44
2022-10-19T02:35:02.134Z,1015.46
2022-10-19T02:36:02.445Z,1015.41
2022-10-19T02:37:02.137Z,1015.40
2022-10-19T02:38:02.117Z,1015.30
2022-10-19T02:39:02.147Z,1015.40
2022-10-19T02:40:02.104Z,1015.36
2022-10-19T02:41:02.085Z,1015.40
2022-10-19T02:42:02.375Z,1015.41
2022-10-19T02:43:02.055Z,1015.39
2022-10-19T02:44:02.034Z,1015.37
2022-10-19T02:45:02.027Z,1015.38
2022-10-19T02:46:02.323Z,1015.37
2022-10-19T02:47:02.005Z,1015.38
2022-10-19T02:48:01.987Z,1015.37
2022-10-19T02:49:01.991Z,1015.39
2022-10-19T02:50:01.965Z,1015.37
2022-10-19T02:51:02.156Z,1015.37
2022-10-19T02:52:01.959Z,1015.32
2022-10-19T02:53:01.950Z,1015.36
2022-10-19T02:54:05.015Z,1015.29
2022-10-19T02:55:01.918Z,1015.35
2022-10-19T02:56:02.159Z,1015.34
2022-10-19T02:57:01.915Z,1015.31
2022-10-19T02:58:01.878Z,1015.41
2022-10-19T02:59:01.881Z,1015.37
2022-10-19T03:00:01.861Z,1015.31
2022-10-19T03:01:02.245Z,1015.31
2022-10-19T03:02:01.842Z,1015.33
2022-10-19T03:03:01.818Z,1015.29
2022-10-19T03:04:01.820Z,1015.27
2022-10-19T03:05:01.800Z,1015.26
2022-10-19T03:06:01.801Z,1015.29
2022-10-19T03:07:02.047Z,1015.24
2022-10-19T03:08:01.772Z,1015.25
2022-10-19T03:09:01.758Z,1015.25
2022-10-19T03:10:01.753Z,1015.28
2022-10-19T03:11:01.743Z,1015.27
2022-10-19T03:12:02.032Z,1015.25
2022-10-19T03:13:01.723Z,1015.25
2022-10-19T03:14:01.932Z,1015.26
2022-10-19T03:15:01.682Z,1015.27
2022-10-19T03:16:01.685Z,1015.28
2022-10-19T03:17:01.989Z,1015.25
2022-10-19T03:18:01.668Z,1015.26
2022-10-19T03:19:01.640Z,1015.33
2022-10-19T03:20:01.655Z,1015.26
2022-10-19T03:21:01.697Z,1015.27
2022-10-19T03:22:01.851Z,1015.27
2022-10-19T03:23:01.609Z,1015.25
2022-10-19T03:24:01.794Z,1015.26
2022-10-19T03:25:01.578Z,1015.27
2022-10-19T03:26:01.571Z,1015.27
2022-10-19T03:27:01.563Z,1015.23
2022-10-19T03:28:01.537Z,1015.24
2022-10-19T03:29:01.604Z,1015.20
2022-10-19T03:30:01.504Z,1015.20
2022-10-19T03:31:01.516Z,1015.19
2022-10-19T03:32:01.499Z,1015.20
2022-10-19T03:33:01.489Z,1015.14
2022-10-19T03:34:01.763Z,1015.13
2022-10-19T03:35:01.453Z,1015.15
2022-10-19T03:36:01.467Z,1015.15
2022-10-19T03:37:01.434Z,1015.16
2022-10-19T03:38:01.709Z,1015.25
2022-10-19T03:39:01.431Z,1015.25
2022-10-19T03:40:01.719Z,1015.20
2022-10-19T03:41:01.399Z,1015.27
2022-10-19T03:42:01.375Z,1015.27
2022-10-19T03:43:01.379Z,1015.32
2022-10-19T03:44:01.349Z,1015.32
2022-10-19T03:45:01.587Z,1015.33
2022-10-19T03:46:01.326Z,1015.35
2022-10-19T03:47:01.317Z,1015.30
2022-10-19T03:48:01.309Z,1015.34
2022-10-19T03:49:01.512Z,1015.32
2022-10-19T03:50:01.299Z,1015.29
2022-10-19T03:51:01.282Z,1015.26
2022-10-19T03:52:01.271Z,1015.27
2022-10-19T03:54:01.552Z,1015.25
2022-10-19T03:55:01.245Z,1015.26
2022-10-19T03:56:01.231Z,1015.27
2022-10-19T03:57:01.199Z,1015.26
2022-10-19T03:58:01.211Z,1015.28
2022-10-19T03:59:01.191Z,1015.26
2022-10-19T04:00:01.441Z,1015.26
2022-10-19T04:01:01.212Z,1015.29
2022-10-19T04:02:01.154Z,1015.29
2022-10-19T04:03:01.144Z,1015.26
2022-10-19T04:04:01.142Z,1015.31
2022-10-19T04:05:01.395Z,1015.31
2022-10-19T04:06:01.106Z,1015.31
2022-10-19T04:07:01.391Z,1015.36
2022-10-19T04:08:01.095Z,1015.38
2022-10-19T04:09:01.074Z,1015.39
2022-10-19T04:10:01.051Z,1015.39
2022-10-19T04:11:01.055Z,1015.36
2022-10-19T04:12:01.044Z,1015.41
2022-10-19T04:13:01.374Z,1015.41
2022-10-19T04:14:01.059Z,1015.42
2022-10-19T04:15:01.014Z,1015.39
2022-10-19T04:16:01.242Z,1015.37
2022-10-19T04:17:00.986Z,1015.33
2022-10-19T04:18:00.967Z,1015.38
2022-10-19T04:19:00.953Z,1015.40
2022-10-19T04:20:01.215Z,1015.40
2022-10-19T04:21:00.946Z,1015.44
2022-10-19T04:22:00.925Z,1015.38
2022-10-19T04:23:00.919Z,1015.40
2022-10-19T04:24:00.908Z,1015.36
2022-10-19T04:25:00.893Z,1015.37
2022-10-19T04:26:00.879Z,1015.38
2022-10-19T04:27:00.868Z,1015.38
2022-10-19T04:28:00.845Z,1015.36
2022-10-19T04:29:00.911Z,1015.37
2022-10-19T04:30:01.149Z,1015.34
2022-10-19T04:31:00.829Z,1015.35
2022-10-19T04:32:00.796Z,1015.32
2022-10-19T04:33:00.785Z,1015.30
2022-10-19T04:34:00.775Z,1015.33
2022-10-19T04:35:00.995Z,1015.31
2022-10-19T04:36:00.769Z,1015.31
2022-10-19T04:37:00.759Z,1015.28
2022-10-19T04:38:00.726Z,1015.24
2022-10-19T04:39:00.726Z,1015.26
2022-10-19T04:40:00.957Z,1015.27
2022-10-19T04:41:00.711Z,1015.24
2022-10-19T04:42:00.691Z,1015.22
2022-10-19T04:43:00.689Z,1015.27
2022-10-19T04:44:00.659Z,1015.27
2022-10-19T04:45:00.949Z,1015.29
2022-10-19T04:46:00.971Z,1015.25
2022-10-19T04:47:00.628Z,1015.23
2022-10-19T04:48:00.609Z,1015.22
2022-10-19T04:49:00.608Z,1015.27
2022-10-19T04:50:00.813Z,1015.27
2022-10-19T04:51:00.848Z,1015.27
2022-10-19T04:52:00.568Z,1015.26
2022-10-19T04:53:00.573Z,1015.21
2022-10-19T04:54:00.541Z,1015.26
2022-10-19T04:55:00.543Z,1015.30
2022-10-19T04:56:00.820Z,1015.31
2022-10-19T04:57:00.522Z,1015.30
2022-10-19T04:58:00.491Z,1015.24
2022-10-19T04:59:00.490Z,1015.30
2022-10-19T05:00:00.473Z,1015.22
2022-10-19T05:01:00.819Z,1015.25
2022-10-19T05:02:00.464Z,1015.25
2022-10-19T05:03:00.455Z,1015.23
2022-10-19T05:04:00.564Z,1015.24
2022-10-19T05:05:00.412Z,1015.21
2022-10-19T05:06:00.422Z,1015.19
2022-10-19T05:07:00.400Z,1015.23
2022-10-19T05:08:00.383Z,1015.21
2022-10-19T05:09:00.373Z,1015.16
2022-10-19T05:10:00.374Z,1015.16
2022-10-19T05:11:00.362Z,1015.14
2022-10-19T05:12:00.563Z,1015.13
2022-10-19T05:13:00.336Z,1015.14
2022-10-19T05:14:00.329Z,1015.12
2022-10-19T05:15:00.318Z,1015.10
2022-10-19T05:16:00.299Z,1015.09
2022-10-19T05:17:00.587Z,1015.02
2022-10-19T05:18:00.286Z,1015.02
2022-10-19T05:19:00.256Z,1015.03
2022-10-19T05:20:00.246Z,1014.97
2022-10-19T05:21:00.259Z,1015.00
2022-10-19T05:22:00.426Z,1014.98
2022-10-19T05:23:04.676Z,1014.96
2022-10-19T05:24:01.215Z,1014.95
2022-10-19T05:25:00.201Z,1014.97
2022-10-19T05:26:00.206Z,1014.95
2022-10-19T05:27:00.176Z,1014.96
2022-10-19T05:28:00.477Z,1014.98
2022-10-19T05:29:00.552Z,1014.96
2022-10-19T05:30:00.154Z,1015.01
2022-10-19T05:31:00.127Z,1014.99
2022-10-19T05:32:00.120Z,1014.98
2022-10-19T05:33:00.327Z,1015.00
2022-10-19T05:34:00.170Z,1014.98
2022-10-19T05:35:00.156Z,1014.98
2022-10-19T05:36:00.084Z,1014.99
2022-10-19T05:37:07.087Z,1015.00
2022-10-19T05:38:00.051Z,1015.00
2022-10-19T05:39:00.027Z,1014.98
2022-10-19T05:40:00.248Z,1015.02
2022-10-19T05:41:00.007Z,1014.96
2022-10-19T05:41:59.988Z,1014.96
2022-10-19T05:43:00.021Z,1014.94
2022-10-19T05:43:59.968Z,1014.91
2022-10-19T05:44:59.970Z,1014.92
2022-10-19T05:45:59.960Z,1014.97
2022-10-19T05:46:59.938Z,1014.93
2022-10-19T05:47:59.919Z,1014.91
2022-10-19T05:48:59.929Z,1014.91
2022-10-19T05:49:59.935Z,1014.94
2022-10-19T05:50:59.889Z,1014.87
2022-10-19T05:51:59.898Z,1014.84
2022-10-19T05:52:59.882Z,1014.86
2022-10-19T05:53:59.863Z,1014.86
2022-10-19T05:54:59.849Z,1014.88
2022-10-19T05:55:59.820Z,1014.94
2022-10-19T05:56:59.822Z,1014.91
2022-10-19T05:58:00.134Z,1014.89
2022-10-19T05:58:59.813Z,1014.91
2022-10-19T05:59:59.781Z,1014.91
2022-10-19T06:00:59.795Z,1014.88
2022-10-19T06:02:00.019Z,1014.91
2022-10-19T06:02:59.765Z,1014.92
2022-10-19T06:03:59.755Z,1014.90
2022-10-19T06:04:59.745Z,1014.94
2022-10-19T06:05:59.711Z,1014.93
2022-10-19T06:06:59.721Z,1014.96
2022-10-19T06:07:59.683Z,1014.94
2022-10-19T06:08:59.695Z,1015.00
2022-10-19T06:09:59.703Z,1015.01
2022-10-19T06:10:59.922Z,1014.99
2022-10-19T06:11:59.643Z,1015.05
2022-10-19T06:12:59.647Z,1015.02
2022-10-19T06:13:59.967Z,1015.02
2022-10-19T06:14:59.627Z,1015.04
2022-10-19T06:15:59.628Z,1015.00
2022-10-19T06:16:59.591Z,1015.03
2022-10-19T06:17:59.575Z,1014.97
2022-10-19T06:18:59.577Z,1015.01
2022-10-19T06:19:59.554Z,1015.04
2022-10-19T06:20:59.859Z,1015.08
2022-10-19T06:21:59.549Z,1015.09
2022-10-19T06:22:59.535Z,1015.07
2022-10-19T06:23:59.505Z,1015.11
2022-10-19T06:24:59.608Z,1015.08
2022-10-19T06:25:59.498Z,1015.12
2022-10-19T06:26:59.470Z,1015.13
2022-10-19T06:27:59.477Z,1015.15
2022-10-19T06:28:59.470Z,1015.15
2022-10-19T06:29:59.454Z,1015.09
2022-10-19T06:30:59.680Z,1015.16
2022-10-19T06:31:59.430Z,1015.13
2022-10-19T06:32:59.517Z,1015.13
2022-10-19T06:33:59.719Z,1015.14
2022-10-19T06:34:59.387Z,1015.09
2022-10-19T06:35:59.389Z,1015.09
2022-10-19T06:36:59.681Z,1015.04
2022-10-19T06:37:59.348Z,1015.08
2022-10-19T06:38:59.349Z,1015.08
2022-10-19T06:40:02.375Z,1015.02
2022-10-19T06:41:00.321Z,1015.06
2022-10-19T06:41:59.309Z,1015.09
2022-10-19T06:42:59.603Z,1015.09
2022-10-19T06:43:59.279Z,1015.14
2022-10-19T06:44:59.281Z,1015.15
2022-10-19T06:45:59.258Z,1015.15
2022-10-19T06:46:59.464Z,1015.14
2022-10-19T06:48:02.203Z,1015.10
2022-10-19T06:49:00.221Z,1015.06
2022-10-19T06:49:59.210Z,1015.13
2022-10-19T06:50:59.190Z,1015.10
2022-10-19T06:51:59.231Z,1015.13
2022-10-19T06:52:59.172Z,1015.07
2022-10-19T06:53:59.171Z,1015.11
2022-10-19T06:54:59.352Z,1015.12
2022-10-19T06:55:59.170Z,1015.07
2022-10-19T06:56:59.376Z,1015.10
2022-10-19T06:57:59.365Z,1015.08
2022-10-19T06:59:00.012Z,1015.08
2022-10-19T06:59:59.092Z,1015.07
2022-10-19T07:00:59.108Z,1015.09
2022-10-19T07:01:59.093Z,1015.07
2022-10-19T07:02:59.053Z,1015.06
2022-10-19T07:03:59.075Z,1015.07
2022-10-19T07:05:00.324Z,1015.06
2022-10-19T07:05:59.025Z,1015.07
2022-10-19T07:06:59.037Z,1015.13
2022-10-19T07:07:59.055Z,1015.11
2022-10-19T07:08:59.004Z,1015.08
2022-10-19T07:09:59.285Z,1015.08
2022-10-19T07:10:58.964Z,1015.12
2022-10-19T07:11:58.976Z,1015.10
2022-10-19T07:12:59.221Z,1015.09
2022-10-19T07:13:59.167Z,1015.10
2022-10-19T07:14:58.935Z,1015.10
2022-10-19T07:15:58.916Z,1015.05
2022-10-19T07:16:58.935Z,1015.10
2022-10-19T07:17:58.907Z,1015.16
2022-10-19T07:18:58.906Z,1015.12
2022-10-19T07:19:58.866Z,1015.08
2022-10-19T07:20:58.846Z,1015.07
2022-10-19T07:21:58.859Z,1015.02
2022-10-19T07:22:58.835Z,1015.08
2022-10-19T07:23:59.098Z,1015.04
2022-10-19T07:24:59.145Z,1015.06
2022-10-19T07:25:58.819Z,1015.07
2022-10-19T07:26:59.047Z,1015.09
2022-10-19T07:27:58.790Z,1015.03
2022-10-19T07:28:58.780Z,1015.07
2022-10-19T07:29:58.746Z,1015.05
2022-10-19T07:30:58.750Z,1015.10
2022-10-19T07:31:59.060Z,1015.11
2022-10-19T07:32:58.730Z,1015.12
2022-10-19T07:33:58.707Z,1015.08
2022-10-19T07:34:58.697Z,1015.10
2022-10-19T07:35:58.908Z,1015.11
2022-10-19T07:36:58.669Z,1015.13
2022-10-19T07:37:58.680Z,1015.12
2022-10-19T07:38:58.641Z,1015.08
2022-10-19T07:39:58.652Z,1015.04
2022-10-19T07:40:58.939Z,1015.09
2022-10-19T07:41:58.619Z,1015.15
2022-10-19T07:42:58.599Z,1015.11
2022-10-19T07:43:58.591Z,1015.09
2022-10-19T07:44:58.580Z,1015.08
2022-10-19T07:45:58.569Z,1015.07
2022-10-19T07:46:58.849Z,1015.08
2022-10-19T07:47:58.562Z,1015.13
2022-10-19T07:48:58.735Z,1015.13
2022-10-19T07:49:58.534Z,1015.16
2022-10-19T07:50:58.513Z,1015.13
2022-10-19T07:51:58.499Z,1015.18
2022-10-19T07:52:58.483Z,1015.19
2022-10-19T07:53:58.746Z,1015.19
2022-10-19T07:54:58.483Z,1015.19
2022-10-19T07:55:58.685Z,1015.20
2022-10-19T07:56:58.442Z,1015.21
2022-10-19T07:57:58.446Z,1015.22
2022-10-19T07:58:58.760Z,1015.26
2022-10-19T07:59:58.404Z,1015.25
2022-10-19T08:00:58.393Z,1015.25
2022-10-19T08:01:58.453Z,1015.30
2022-10-19T08:03:19.353Z,1015.24
2022-10-19T08:05:02.018Z,1015.15
2022-10-19T08:05:58.577Z,1015.12
2022-10-19T08:06:58.338Z,1015.21
2022-10-19T08:07:58.328Z,1015.11
2022-10-19T08:08:58.646Z,1015.18
2022-10-19T08:09:58.311Z,1015.21
2022-10-19T08:10:58.284Z,1015.19
2022-10-19T08:11:58.266Z,1015.22
2022-10-19T08:12:58.269Z,1015.21
2022-10-19T08:13:58.536Z,1015.28
2022-10-19T08:14:58.540Z,1015.29
2022-10-19T08:15:58.479Z,1015.30
2022-10-19T08:16:58.205Z,1015.25
2022-10-19T08:17:58.221Z,1015.29
2022-10-19T08:18:58.195Z,1015.32
2022-10-19T08:19:58.176Z,1015.25
2022-10-19T08:20:58.158Z,1015.21
2022-10-19T08:21:58.457Z,1015.21
2022-10-19T08:22:59.106Z,1015.16
2022-10-19T08:23:58.129Z,1015.16
2022-10-19T08:24:58.123Z,1015.13
2022-10-19T08:25:58.110Z,1015.16
2022-10-19T08:26:58.407Z,1015.11
2022-10-19T08:27:58.079Z,1015.13
2022-10-19T08:28:58.080Z,1015.19
2022-10-19T08:29:58.059Z,1015.24
2022-10-19T08:30:58.064Z,1015.26
2022-10-19T08:31:58.281Z,1015.32
2022-10-19T08:32:58.020Z,1015.31
2022-10-19T08:33:58.031Z,1015.37
2022-10-19T08:34:58.012Z,1015.35
2022-10-19T08:35:57.992Z,1015.33
2022-10-19T08:36:58.271Z,1015.32
2022-10-19T08:37:58.758Z,1015.31
2022-10-19T08:38:57.960Z,1015.29
2022-10-19T08:39:57.941Z,1015.30
2022-10-19T08:40:57.924Z,1015.32
2022-10-19T08:41:57.946Z,1015.26
2022-10-19T08:42:58.125Z,1015.26
2022-10-19T08:43:57.926Z,1015.28
2022-10-19T08:44:57.918Z,1015.29
2022-10-19T08:45:57.873Z,1015.28
2022-10-19T08:46:57.861Z,1015.31
2022-10-19T08:47:57.857Z,1015.36
2022-10-19T08:48:57.876Z,1015.31
2022-10-19T08:49:57.826Z,1015.34
2022-10-19T08:50:57.814Z,1015.35
2022-10-19T08:51:57.824Z,1015.36
2022-10-19T08:52:57.785Z,1015.29
2022-10-19T08:53:57.796Z,1015.32
2022-10-19T08:54:57.991Z,1015.32
2022-10-19T08:55:59.710Z,1015.25
2022-10-19T08:56:57.754Z,1015.22
2022-10-19T08:57:57.750Z,1015.19
2022-10-19T08:58:57.737Z,1015.20
2022-10-19T08:59:57.732Z,1015.16
2022-10-19T09:00:57.717Z,1015.18
2022-10-19T09:01:57.689Z,1015.12
2022-10-19T09:02:57.684Z,1015.17
2022-10-19T09:03:57.692Z,1015.14
2022-10-19T09:04:57.668Z,1015.15
2022-10-19T09:05:57.883Z,1015.07
2022-10-19T09:06:57.673Z,1015.04
2022-10-19T09:07:57.652Z,1015.02
2022-10-19T09:08:57.672Z,1015.09
2022-10-19T09:09:57.600Z,1015.06
2022-10-19T09:10:57.883Z,1015.11
2022-10-19T09:11:57.952Z,1015.10
2022-10-19T09:12:58.559Z,1015.09
2022-10-19T09:14:05.085Z,1015.10
2022-10-19T09:14:58.555Z,1015.07
2022-10-19T09:15:57.754Z,1015.07
2022-10-19T09:16:57.533Z,1015.08
2022-10-19T09:17:57.505Z,1015.06
2022-10-19T09:18:57.493Z,1014.98
2022-10-19T09:19:57.481Z,1014.99
2022-10-19T09:20:57.462Z,1014.94
2022-10-19T09:21:57.667Z,1014.96
2022-10-19T09:22:57.444Z,1014.95
2022-10-19T09:23:57.447Z,1014.92
2022-10-19T09:24:57.440Z,1014.90
2022-10-19T09:25:57.411Z,1014.92
2022-10-19T09:26:57.603Z,1014.92
2022-10-19T09:27:57.419Z,1014.88
2022-10-19T09:28:57.373Z,1014.86
2022-10-19T09:29:57.385Z,1014.89
2022-10-19T09:30:57.371Z,1014.84
2022-10-19T09:32:57.604Z,1014.79
2022-10-19T09:33:57.315Z,1014.82
2022-10-19T09:34:57.311Z,1014.80
2022-10-19T09:35:57.326Z,1014.75
2022-10-19T09:36:57.392Z,1014.71
2022-10-19T09:37:57.576Z,1014.72
2022-10-19T09:38:57.257Z,1014.73
2022-10-19T09:39:57.247Z,1014.77
2022-10-19T09:40:57.227Z,1014.75
2022-10-19T09:41:57.217Z,1014.70
2022-10-19T09:42:57.507Z,1014.67
2022-10-19T09:43:57.198Z,1014.67
2022-10-19T09:44:57.179Z,1014.64
2022-10-19T09:45:57.168Z,1014.62
2022-10-19T09:46:57.172Z,1014.60
2022-10-19T09:48:04.592Z,1014.67
2022-10-19T09:48:58.162Z,1014.60
2022-10-19T09:49:57.119Z,1014.58
2022-10-19T09:50:57.119Z,1014.57
2022-10-19T09:51:57.100Z,1014.56
2022-10-19T09:52:57.096Z,1014.53
2022-10-19T09:53:57.405Z,1014.57
2022-10-19T09:54:57.061Z,1014.52
2022-10-19T09:55:57.075Z,1014.53
2022-10-19T09:56:57.041Z,1014.47
2022-10-19T09:57:57.050Z,1014.48
2022-10-19T09:58:57.024Z,1014.49
2022-10-19T09:59:57.044Z,1014.46
2022-10-19T10:00:57.026Z,1014.47
2022-10-19T10:01:57.171Z,1014.49
2022-10-19T10:02:56.987Z,1014.49
2022-10-19T10:03:56.976Z,1014.44
2022-10-19T10:04:56.943Z,1014.45
2022-10-19T10:05:57.278Z,1014.43
2022-10-19T10:06:56.938Z,1014.46
2022-10-19T10:07:56.949Z,1014.47
2022-10-19T10:08:56.972Z,1014.41
2022-10-19T10:09:56.894Z,1014.41
2022-10-19T10:10:57.128Z,1014.42
2022-10-19T10:11:56.972Z,1014.38
2022-10-19T10:12:56.856Z,1014.35
2022-10-19T10:13:56.868Z,1014.39
2022-10-19T10:14:56.836Z,1014.42
2022-10-19T10:15:56.827Z,1014.34
2022-10-19T10:16:57.138Z,1014.39
2022-10-19T10:17:56.801Z,1014.40
2022-10-19T10:18:56.807Z,1014.38
2022-10-19T10:19:56.778Z,1014.37
2022-10-19T10:21:56.759Z,1014.34
2022-10-19T10:22:57.083Z,1014.34
2022-10-19T10:23:56.731Z,1014.34
2022-10-19T10:24:56.731Z,1014.32
2022-10-19T10:25:56.709Z,1014.29
2022-10-19T10:26:56.706Z,1014.31
2022-10-19T10:27:56.701Z,1014.35
2022-10-19T10:28:59.268Z,1014.38
2022-10-19T10:30:56.645Z,1014.36
2022-10-19T10:31:56.655Z,1014.29
2022-10-19T10:33:04.622Z,1014.31
2022-10-19T10:34:06.355Z,1014.33
2022-10-19T10:35:00.959Z,1014.32
2022-10-19T10:35:56.582Z,1014.27
2022-10-19T10:36:56.596Z,1014.27
2022-10-19T10:37:56.563Z,1014.21
2022-10-19T10:38:56.905Z,1014.26
2022-10-19T10:39:59.053Z,1014.26
2022-10-19T10:40:57.538Z,1014.23
2022-10-19T10:41:56.535Z,1014.29
2022-10-19T10:42:56.849Z,1014.22
2022-10-19T10:43:58.444Z,1014.25
2022-10-19T10:44:56.485Z,1014.19
2022-10-19T10:45:56.475Z,1014.22
2022-10-19T10:46:56.492Z,1014.18
2022-10-19T10:47:56.533Z,1014.25
2022-10-19T10:48:56.468Z,1014.12
2022-10-19T10:49:56.439Z,1014.15
2022-10-19T10:50:56.420Z,1014.15
2022-10-19T10:51:56.407Z,1014.17
2022-10-19T10:52:56.719Z,1014.11
2022-10-19T10:53:56.378Z,1014.11
2022-10-19T10:54:56.402Z,1014.11
2022-10-19T10:55:56.358Z,1014.08
2022-10-19T10:56:56.362Z,1014.08
2022-10-19T10:57:56.339Z,1014.06
2022-10-19T10:58:56.672Z,1014.09
2022-10-19T10:59:56.319Z,1014.11
2022-10-19T11:00:56.333Z,1014.09
2022-10-19T11:01:56.323Z,1014.06
2022-10-19T11:02:56.502Z,1014.06
2022-10-19T11:03:56.270Z,1014.01
2022-10-19T11:04:56.260Z,1013.99
2022-10-19T11:05:56.263Z,1013.94
2022-10-19T11:06:56.257Z,1013.94
2022-10-19T11:07:56.543Z,1013.94
2022-10-19T11:08:56.237Z,1013.95
2022-10-19T11:09:56.212Z,1013.92
2022-10-19T11:10:56.234Z,1013.92
2022-10-19T11:11:56.312Z,1013.89
2022-10-19T11:12:56.180Z,1013.90
2022-10-19T11:13:56.487Z,1013.88
2022-10-19T11:14:56.157Z,1013.88
2022-10-19T11:15:56.146Z,1013.86
2022-10-19T11:16:56.124Z,1013.87
2022-10-19T11:17:56.114Z,1013.89
2022-10-19T11:18:56.137Z,1013.81
2022-10-19T11:19:56.131Z,1013.79
2022-10-19T11:20:56.098Z,1013.82
2022-10-19T11:21:56.088Z,1013.79
2022-10-19T11:22:56.063Z,1013.79
2022-10-19T11:23:56.379Z,1013.80
2022-10-19T11:24:56.057Z,1013.76
2022-10-19T11:25:56.038Z,1013.73
2022-10-19T11:26:56.007Z,1013.71
2022-10-19T11:27:55.989Z,1013.72
2022-10-19T11:28:56.003Z,1013.72
2022-10-19T11:29:56.002Z,1013.69
2022-10-19T11:30:55.980Z,1013.71
2022-10-19T11:31:55.963Z,1013.70
2022-10-19T11:32:55.972Z,1013.69
2022-10-19T11:33:55.922Z,1013.66
2022-10-19T11:34:55.932Z,1013.66
2022-10-19T11:35:55.996Z,1013.67
2022-10-19T11:38:19.703Z,1013.70
2022-10-19T11:39:06.998Z,1013.73
2022-10-19T11:40:06.001Z,1013.68
2022-10-19T11:41:17.335Z,1013.70
2022-10-19T11:42:06.980Z,1013.67
2022-10-19T11:43:05.964Z,1013.59
2022-10-19T11:44:05.982Z,1013.60
2022-10-19T11:45:05.935Z,1013.53
2022-10-19T11:46:05.920Z,1013.55
2022-10-19T11:47:05.901Z,1013.49
2022-10-19T11:48:05.898Z,1013.49
2022-10-19T11:49:05.879Z,1013.49
2022-10-19T11:50:05.915Z,1013.47
2022-10-19T11:51:17.421Z,1013.41
2022-10-19T11:52:06.855Z,1013.37
2022-10-19T11:53:05.846Z,1013.36
2022-10-19T11:54:05.924Z,1013.28
2022-10-19T11:55:05.811Z,1013.23
2022-10-19T11:56:05.804Z,1013.21
2022-10-19T11:57:10.577Z,1013.21
2022-10-19T11:58:06.773Z,1013.19
2022-10-19T11:59:05.803Z,1013.17
2022-10-19T12:00:14.628Z,1013.18
2022-10-19T12:01:06.766Z,1013.19
2022-10-19T12:02:05.811Z,1013.16
2022-10-19T12:03:05.727Z,1013.15
2022-10-19T12:04:05.708Z,1013.09
2022-10-19T12:05:05.917Z,1013.07
2022-10-19T12:06:05.699Z,1013.04
2022-10-19T12:07:05.669Z,1013.01
2022-10-19T12:08:05.674Z,1013.00
2022-10-19T12:09:05.917Z,1012.99
2022-10-19T12:10:05.628Z,1013.00
2022-10-19T12:11:05.620Z,1012.99
2022-10-19T12:12:05.621Z,1013.00
2022-10-19T12:13:05.622Z,1013.00